createdAt,value
2023-03-15T00:02:07.308Z,16.60
2023-03-15T00:04:41.441Z,16.60
2023-03-15T00:07:12.738Z,16.60
2023-03-15T00:09:43.865Z,16.60
2023-03-15T00:12:14.883Z,16.60
2023-03-15T00:14:45.955Z,16.60
2023-03-15T00:17:16.838Z,16.60
2023-03-15T00:19:49.432Z,16.60
2023-03-15T00:22:20.363Z,16.60
2023-03-15T00:24:51.471Z,16.60
2023-03-15T00:27:22.511Z,16.60
2023-03-15T00:29:53.352Z,16.60
2023-03-15T00:32:24.571Z,16.70
2023-03-15T00:34:56.183Z,16.70
2023-03-15T00:37:27.446Z,16.70
2023-03-15T00:39:58.674Z,16.70
2023-03-15T00:42:30.253Z,16.70
2023-03-15T00:45:01.431Z,16.70
2023-03-15T00:47:33.374Z,16.70
2023-03-15T00:50:04.414Z,16.80
2023-03-15T00:52:40.193Z,16.70
2023-03-15T00:55:17.606Z,16.80
2023-03-15T00:57:49.406Z,16.80
2023-03-15T01:00:26.494Z,16.80
2023-03-15T01:02:57.578Z,16.90
2023-03-15T01:05:28.621Z,16.90
2023-03-15T01:08:05.815Z,16.90
2023-03-15T01:10:38.167Z,16.90
2023-03-15T01:13:09.397Z,16.90
2023-03-15T01:15:40.450Z,16.90
2023-03-15T01:18:14.736Z,17.00
2023-03-15T01:20:48.636Z,17.00
2023-03-15T01:23:19.282Z,17.10
2023-03-15T01:25:51.063Z,17.10
2023-03-15T01:28:22.160Z,17.20
2023-03-15T01:30:54.075Z,17.20
2023-03-15T01:33:25.781Z,17.30
2023-03-15T01:36:08.964Z,17.40
2023-03-15T01:38:40.158Z,17.30
2023-03-15T01:41:12.196Z,17.20
2023-03-15T01:43:50.064Z,17.40
2023-03-15T01:46:31.655Z,17.40
2023-03-15T01:49:29.048Z,17.40
2023-03-15T01:52:23.064Z,17.50
2023-03-15T01:55:11.887Z,17.50
2023-03-15T01:57:58.616Z,17.50
2023-03-15T02:00:32.028Z,17.50
2023-03-15T02:03:19.348Z,17.50
2023-03-15T02:05:58.766Z,17.50
2023-03-15T02:09:06.539Z,17.60
2023-03-15T02:11:40.746Z,17.60
2023-03-15T02:14:15.933Z,17.60
2023-03-15T02:16:47.928Z,17.60
2023-03-15T02:19:52.590Z,17.60
2023-03-15T02:22:46.183Z,17.60
2023-03-15T02:25:26.377Z,17.70
2023-03-15T02:27:59.048Z,17.70
2023-03-15T02:30:30.296Z,17.80
2023-03-15T02:33:03.423Z,17.70
2023-03-15T02:35:35.741Z,17.80
2023-03-15T02:38:07.165Z,17.70
2023-03-15T02:40:38.411Z,17.70
2023-03-15T02:43:23.487Z,17.80
2023-03-15T02:46:00.358Z,17.80
2023-03-15T02:48:34.131Z,17.80
2023-03-15T02:51:07.169Z,17.80
2023-03-15T02:53:39.544Z,17.80
2023-03-15T02:56:10.455Z,17.90
2023-03-15T02:58:41.506Z,17.90
2023-03-15T03:01:14.866Z,17.90
2023-03-15T03:03:47.647Z,17.90
2023-03-15T03:06:21.232Z,18.00
2023-03-15T03:08:55.594Z,18.00
2023-03-15T03:11:27.428Z,18.00
2023-03-15T03:14:00.493Z,17.90
2023-03-15T03:16:35.974Z,18.00
2023-03-15T03:19:07.195Z,18.00
2023-03-15T03:21:38.724Z,18.10
2023-03-15T03:24:10.153Z,18.10
2023-03-15T03:26:41.435Z,18.20
2023-03-15T03:29:12.872Z,18.20
2023-03-15T03:31:45.096Z,18.20
2023-03-15T03:34:17.220Z,18.30
2023-03-15T03:36:49.233Z,18.40
2023-03-15T03:39:27.356Z,18.40
2023-03-15T03:41:58.824Z,18.40
2023-03-15T03:44:31.467Z,18.50
2023-03-15T03:47:03.572Z,18.60
2023-03-15T03:49:34.769Z,18.60
2023-03-15T03:52:05.920Z,18.70
2023-03-15T03:54:37.631Z,18.70
2023-03-15T03:57:09.028Z,18.70
2023-03-15T03:59:41.876Z,18.70
2023-03-15T04:02:13.723Z,18.70
2023-03-15T04:04:58.397Z,18.70
2023-03-15T04:07:30.813Z,18.60
2023-03-15T04:10:06.681Z,18.60
2023-03-15T04:12:39.394Z,18.60
2023-03-15T04:15:10.438Z,18.60
2023-03-15T04:17:43.308Z,18.60
2023-03-15T04:20:14.862Z,18.60
2023-03-15T04:22:51.128Z,18.60
2023-03-15T04:25:27.957Z,18.60
2023-03-15T04:28:36.750Z,18.60
2023-03-15T04:31:39.178Z,18.50
2023-03-15T04:34:29.950Z,18.50
2023-03-15T04:37:08.832Z,18.50
2023-03-15T04:40:14.467Z,18.50
2023-03-15T04:42:57.208Z,18.50
2023-03-15T04:45:53.230Z,18.60
2023-03-15T04:49:07.788Z,18.60
2023-03-15T04:51:57.368Z,18.70
2023-03-15T04:54:42.005Z,18.80
2023-03-15T04:57:22.319Z,18.80
2023-03-15T05:00:28.478Z,18.90
2023-03-15T05:03:20.374Z,19.00
2023-03-15T05:05:59.808Z,19.00
2023-03-15T05:08:50.535Z,19.00
2023-03-15T05:11:39.662Z,19.10
2023-03-15T05:14:36.694Z,19.10
2023-03-15T05:17:17.722Z,19.00
2023-03-15T05:19:57.875Z,19.10
2023-03-15T05:22:55.511Z,19.10
2023-03-15T05:25:56.907Z,19.30
2023-03-15T05:28:50.962Z,19.30
2023-03-15T05:31:38.497Z,19.50
2023-03-15T05:34:09.496Z,19.50
2023-03-15T05:36:51.077Z,19.70
2023-03-15T05:40:03.017Z,19.60
2023-03-15T05:43:12.795Z,19.60
2023-03-15T05:46:19.316Z,19.60
2023-03-15T05:49:10.037Z,19.70
2023-03-15T05:51:52.446Z,19.70
2023-03-15T05:54:39.684Z,19.70
2023-03-15T06:00:31.486Z,19.80
2023-03-15T06:03:10.139Z,19.80
2023-03-15T06:06:06.298Z,19.90
2023-03-15T06:08:43.350Z,19.80
2023-03-15T06:11:14.676Z,19.90
2023-03-15T06:13:45.911Z,19.90
2023-03-15T06:16:28.433Z,19.80
2023-03-15T06:19:02.124Z,19.90
2023-03-15T06:21:33.806Z,19.80
2023-03-15T06:24:08.221Z,19.80
2023-03-15T06:26:40.452Z,19.80
2023-03-15T06:29:12.275Z,19.80
2023-03-15T06:31:43.523Z,19.70
2023-03-15T06:34:15.806Z,19.80
2023-03-15T06:36:47.409Z,19.80
2023-03-15T06:39:18.963Z,19.80
2023-03-15T06:41:50.517Z,19.80
2023-03-15T06:44:24.006Z,19.90
2023-03-15T06:47:00.688Z,20.00
2023-03-15T06:49:34.751Z,20.00
2023-03-15T06:52:07.986Z,20.00
2023-03-15T06:54:39.896Z,20.00
2023-03-15T06:57:14.769Z,20.00
2023-03-15T06:59:46.151Z,20.00
2023-03-15T07:02:20.479Z,20.00
2023-03-15T07:04:51.800Z,20.10
2023-03-15T07:07:22.945Z,20.00
2023-03-15T07:09:55.232Z,20.10
2023-03-15T07:12:26.575Z,20.10
2023-03-15T07:14:57.637Z,20.00
2023-03-15T07:17:32.209Z,20.00
2023-03-15T07:20:03.328Z,20.10
2023-03-15T07:22:35.758Z,20.10
2023-03-15T07:25:08.944Z,20.20
2023-03-15T07:27:40.205Z,20.30
2023-03-15T07:30:12.314Z,20.30
2023-03-15T07:32:43.585Z,20.40
2023-03-15T07:35:15.418Z,20.40
2023-03-15T07:37:46.411Z,20.50
2023-03-15T07:40:17.743Z,20.50
2023-03-15T07:42:51.713Z,20.60
2023-03-15T07:45:22.351Z,20.70
2023-03-15T07:47:56.206Z,20.60
2023-03-15T07:50:27.794Z,20.60
2023-03-15T07:52:58.928Z,20.50
2023-03-15T07:55:29.986Z,20.60
2023-03-15T07:58:01.133Z,20.50
2023-03-15T08:00:32.654Z,20.40
2023-03-15T08:03:04.204Z,20.50
2023-03-15T08:05:36.839Z,20.50
2023-03-15T08:08:08.590Z,20.40
2023-03-15T08:10:40.835Z,20.40
2023-03-15T08:13:14.065Z,20.40
2023-03-15T08:15:49.184Z,20.30
2023-03-15T08:18:20.452Z,20.30
2023-03-15T08:20:51.788Z,20.10
2023-03-15T08:23:23.541Z,20.10
2023-03-15T08:26:14.442Z,20.10
2023-03-15T08:28:45.769Z,20.20
2023-03-15T08:31:18.292Z,20.20
2023-03-15T08:33:50.047Z,20.10
2023-03-15T08:36:22.881Z,20.00
2023-03-15T08:38:54.089Z,20.00
2023-03-15T08:41:25.315Z,20.10
2023-03-15T08:43:56.558Z,20.10
2023-03-15T08:46:29.599Z,20.00
2023-03-15T08:49:01.154Z,20.00
2023-03-15T08:51:32.810Z,20.00
2023-03-15T08:54:05.706Z,20.00
2023-03-15T08:56:37.331Z,20.10
2023-03-15T08:59:09.222Z,20.00
2023-03-15T09:01:42.164Z,20.00
2023-03-15T09:04:24.975Z,19.90
2023-03-15T09:06:56.527Z,19.90
2023-03-15T09:09:27.812Z,19.90
2023-03-15T09:11:59.319Z,19.80
2023-03-15T09:14:33.627Z,19.80
2023-03-15T09:17:04.772Z,19.80
2023-03-15T09:19:36.040Z,19.70
2023-03-15T09:22:38.537Z,19.80
2023-03-15T09:25:11.580Z,19.70
2023-03-15T09:27:42.614Z,19.70
2023-03-15T09:30:15.367Z,19.70
2023-03-15T09:32:47.434Z,19.70
2023-03-15T09:35:21.333Z,19.70
2023-03-15T09:37:53.635Z,19.70
2023-03-15T09:40:34.821Z,19.70
2023-03-15T09:46:33.790Z,19.70
2023-03-15T09:49:23.827Z,19.70
2023-03-15T09:52:00.983Z,19.60
2023-03-15T09:54:51.581Z,19.60
2023-03-15T09:57:28.534Z,19.60
2023-03-15T10:00:01.008Z,19.60
2023-03-15T10:02:33.294Z,19.60
2023-03-15T10:05:14.533Z,19.50
2023-03-15T10:10:36.462Z,19.40
2023-03-15T10:13:25.495Z,19.40
2023-03-15T10:16:29.046Z,19.40
2023-03-15T10:19:34.930Z,19.30
2023-03-15T10:22:33.846Z,19.20
2023-03-15T10:25:25.615Z,19.20
2023-03-15T10:28:23.144Z,19.20
2023-03-15T10:30:54.919Z,19.20
2023-03-15T10:33:38.023Z,19.20
2023-03-15T10:36:27.906Z,19.10
2023-03-15T10:39:02.268Z,19.10
2023-03-15T10:41:53.548Z,19.00
2023-03-15T10:44:29.148Z,19.00
2023-03-15T10:47:23.165Z,18.90
2023-03-15T10:50:02.633Z,18.90
2023-03-15T10:52:38.969Z,18.90
2023-03-15T10:55:45.595Z,18.90
2023-03-15T10:58:33.924Z,18.90
2023-03-15T11:01:11.358Z,18.80
2023-03-15T11:03:45.618Z,18.70
2023-03-15T11:06:28.020Z,18.50
2023-03-15T11:09:26.409Z,18.70
2023-03-15T11:12:12.749Z,18.80
2023-03-15T11:14:48.393Z,18.70
2023-03-15T11:17:26.326Z,18.70
2023-03-15T11:20:17.875Z,18.70
2023-03-15T11:22:51.178Z,18.70
2023-03-15T11:25:28.108Z,18.60
2023-03-15T11:28:02.861Z,18.60
2023-03-15T11:30:35.099Z,18.60
2023-03-15T11:33:11.164Z,18.60
2023-03-15T11:36:05.311Z,18.60
2023-03-15T11:38:46.163Z,18.50
2023-03-15T11:41:49.953Z,18.50
2023-03-15T11:44:42.440Z,18.50
2023-03-15T11:47:41.750Z,18.50
2023-03-15T11:50:20.763Z,18.50
2023-03-15T11:52:54.271Z,18.40
2023-03-15T11:55:30.425Z,18.40
2023-03-15T11:58:37.205Z,18.40
2023-03-15T12:01:12.029Z,18.40
2023-03-15T12:03:55.888Z,18.40
2023-03-15T12:06:37.055Z,18.40
2023-03-15T12:09:39.848Z,18.40
2023-03-15T12:12:30.905Z,18.40
2023-03-15T12:15:21.958Z,18.40
2023-03-15T12:17:55.635Z,18.30
2023-03-15T12:20:29.777Z,18.30
2023-03-15T12:23:19.467Z,18.30
2023-03-15T12:26:00.008Z,18.30
2023-03-15T12:28:38.118Z,18.30
2023-03-15T12:31:14.545Z,18.30
2023-03-15T12:34:03.020Z,18.30
2023-03-15T12:36:43.230Z,18.20
2023-03-15T12:39:17.519Z,18.20
2023-03-15T12:44:35.319Z,18.30
2023-03-15T12:47:26.330Z,18.30
2023-03-15T12:49:58.860Z,18.20
2023-03-15T12:52:45.044Z,18.20
2023-03-15T12:55:21.321Z,18.20
2023-03-15T12:57:55.904Z,18.20
2023-03-15T13:00:32.800Z,18.20
2023-03-15T13:03:28.197Z,18.20
2023-03-15T13:06:13.241Z,18.10
2023-03-15T13:08:50.139Z,18.10
2023-03-15T13:11:44.332Z,18.10
2023-03-15T13:14:27.642Z,18.10
2023-03-15T13:17:12.853Z,18.10
2023-03-15T13:19:47.649Z,18.10
2023-03-15T13:23:06.176Z,18.10
2023-03-15T13:26:12.418Z,18.10
2023-03-15T13:29:06.837Z,18.00
2023-03-15T13:31:39.449Z,18.10
2023-03-15T13:34:25.915Z,18.10
2023-03-15T13:37:02.604Z,18.10
2023-03-15T13:39:38.150Z,18.10
2023-03-15T13:42:21.905Z,18.10
2023-03-15T13:45:19.673Z,18.10
2023-03-15T13:47:52.695Z,18.10
2023-03-15T13:50:26.865Z,18.10
2023-03-15T13:53:02.605Z,18.00
2023-03-15T13:55:39.041Z,18.00
2023-03-15T13:58:13.474Z,18.00
2023-03-15T14:00:45.007Z,18.00
2023-03-15T14:03:36.522Z,18.00
2023-03-15T14:06:08.869Z,18.00
2023-03-15T14:08:42.127Z,18.00
2023-03-15T14:11:38.055Z,18.00
2023-03-15T14:14:30.857Z,18.00
2023-03-15T14:17:08.743Z,18.00
2023-03-15T14:19:51.616Z,18.00
2023-03-15T14:22:23.298Z,18.00
2023-03-15T14:24:56.754Z,18.00
2023-03-15T14:27:33.219Z,18.00
2023-03-15T14:30:13.363Z,18.00
2023-03-15T14:32:59.229Z,17.90
2023-03-15T14:35:39.257Z,17.90
2023-03-15T14:38:16.178Z,17.90
2023-03-15T14:40:47.622Z,17.90
2023-03-15T14:43:19.588Z,17.90
2023-03-15T14:45:58.400Z,17.90
2023-03-15T14:48:35.755Z,17.90
2023-03-15T14:51:29.917Z,17.90
2023-03-15T14:54:03.551Z,17.80
2023-03-15T14:56:39.809Z,17.80
2023-03-15T14:59:16.826Z,17.90
2023-03-15T15:01:58.766Z,17.90
2023-03-15T15:04:50.198Z,17.90
2023-03-15T15:07:22.087Z,17.90
2023-03-15T15:09:53.431Z,17.90
2023-03-15T15:12:24.406Z,17.90
2023-03-15T15:14:59.362Z,17.90
2023-03-15T15:17:31.295Z,17.80
2023-03-15T15:20:02.772Z,17.80
2023-03-15T15:22:34.111Z,17.80
2023-03-15T15:25:08.933Z,17.80
2023-03-15T15:27:39.941Z,17.80
2023-03-15T15:30:18.538Z,17.80
2023-03-15T15:32:50.332Z,17.80
2023-03-15T15:35:23.597Z,17.70
2023-03-15T15:38:15.122Z,17.70
2023-03-15T15:40:46.325Z,17.70
2023-03-15T15:43:23.238Z,17.70
2023-03-15T15:45:54.726Z,17.70
2023-03-15T15:48:26.112Z,17.70
2023-03-15T15:50:57.467Z,17.70
2023-03-15T15:53:37.417Z,17.70
2023-03-15T15:56:17.099Z,17.70
2023-03-15T15:58:49.671Z,17.70
2023-03-15T16:01:24.308Z,17.70
2023-03-15T16:03:57.231Z,17.60
2023-03-15T16:06:28.737Z,17.60
2023-03-15T16:09:00.289Z,17.60
2023-03-15T16:14:38.263Z,17.60
2023-03-15T16:17:16.977Z,17.60
2023-03-15T16:19:48.277Z,17.50
2023-03-15T16:22:23.680Z,17.60
2023-03-15T16:24:59.033Z,17.60
2023-03-15T16:27:31.474Z,17.60
2023-03-15T16:30:03.872Z,17.60
2023-03-15T16:32:43.936Z,17.60
2023-03-15T16:35:19.742Z,17.60
2023-03-15T16:37:59.367Z,17.60
2023-03-15T16:40:38.979Z,17.60
2023-03-15T16:43:17.657Z,17.60
2023-03-15T16:45:52.380Z,17.60
2023-03-15T16:48:56.976Z,17.60
2023-03-15T16:51:31.572Z,17.50
2023-03-15T16:54:17.958Z,17.50
2023-03-15T16:56:55.526Z,17.50
2023-03-15T16:59:26.830Z,17.50
2023-03-15T17:02:00.583Z,17.50
2023-03-15T17:04:38.358Z,17.50
2023-03-15T17:09:57.002Z,17.50
2023-03-15T17:12:30.592Z,17.50
2023-03-15T17:15:02.758Z,17.50
2023-03-15T17:17:34.074Z,17.30
2023-03-15T17:20:11.955Z,17.40
2023-03-15T17:22:45.188Z,17.50
2023-03-15T17:25:19.852Z,17.50
2023-03-15T17:27:53.115Z,17.40
2023-03-15T17:30:30.801Z,17.30
2023-03-15T17:33:05.487Z,17.60
2023-03-15T17:35:48.724Z,17.60
2023-03-15T17:38:24.437Z,17.50
2023-03-15T17:40:56.876Z,17.50
2023-03-15T17:43:28.326Z,17.60
2023-03-15T17:46:00.636Z,17.50
2023-03-15T17:48:31.716Z,17.50
2023-03-15T17:51:03.901Z,17.50
2023-03-15T17:53:35.277Z,17.50
2023-03-15T17:56:06.593Z,17.50
2023-03-15T17:58:37.797Z,17.50
2023-03-15T18:01:30.063Z,17.50
2023-03-15T18:04:01.327Z,17.50
2023-03-15T18:06:32.690Z,17.50
2023-03-15T18:09:05.700Z,17.50
2023-03-15T18:11:37.959Z,17.50
2023-03-15T18:14:09.017Z,17.50
2023-03-15T18:16:41.159Z,17.40
2023-03-15T18:19:12.728Z,17.50
2023-03-15T18:21:43.882Z,17.50
2023-03-15T18:24:15.928Z,17.50
2023-03-15T18:26:47.004Z,17.40
2023-03-15T18:29:17.960Z,17.40
2023-03-15T18:31:49.049Z,17.40
2023-03-15T18:34:23.356Z,17.40
2023-03-15T18:36:54.566Z,17.40
2023-03-15T18:39:26.881Z,17.30
2023-03-15T18:41:58.059Z,17.20
2023-03-15T18:44:34.557Z,17.30
2023-03-15T18:47:08.553Z,17.40
2023-03-15T18:49:40.722Z,17.40
2023-03-15T18:52:17.554Z,17.40
2023-03-15T18:54:48.562Z,17.40
2023-03-15T18:57:22.234Z,17.40
2023-03-15T18:59:53.467Z,17.40
2023-03-15T19:02:24.625Z,17.40
2023-03-15T19:04:59.136Z,17.40
2023-03-15T19:07:30.290Z,17.40
2023-03-15T19:10:05.789Z,17.40
2023-03-15T19:12:38.531Z,17.40
2023-03-15T19:15:13.471Z,17.40
2023-03-15T19:17:45.239Z,17.30
2023-03-15T19:20:18.673Z,17.30
2023-03-15T19:22:50.056Z,17.30
2023-03-15T19:25:21.690Z,17.30
2023-03-15T19:27:53.057Z,17.10
2023-03-15T19:30:24.213Z,17.10
2023-03-15T19:32:55.314Z,17.30
2023-03-15T19:35:28.282Z,17.40
2023-03-15T19:37:59.331Z,17.20
2023-03-15T19:40:30.489Z,17.20
2023-03-15T19:43:02.151Z,17.30
2023-03-15T19:45:33.204Z,17.30
2023-03-15T19:48:04.291Z,17.30
2023-03-15T19:50:35.405Z,17.20
2023-03-15T19:53:06.670Z,17.20
2023-03-15T19:55:37.569Z,17.30
2023-03-15T19:58:08.509Z,17.10
2023-03-15T20:00:39.341Z,17.30
2023-03-15T20:03:10.464Z,17.30
2023-03-15T20:05:41.560Z,17.10
2023-03-15T20:08:12.444Z,17.30
2023-03-15T20:10:43.280Z,17.30
2023-03-15T20:13:14.297Z,17.30
2023-03-15T20:15:45.979Z,17.30
2023-03-15T20:18:17.652Z,17.30
2023-03-15T20:20:48.314Z,17.30
2023-03-15T20:23:19.910Z,17.20
2023-03-15T20:25:51.866Z,17.30
2023-03-15T20:28:22.947Z,17.10
2023-03-15T20:30:53.969Z,17.00
2023-03-15T20:33:25.032Z,17.30
2023-03-15T20:35:56.012Z,17.30
2023-03-15T20:38:27.061Z,17.30
2023-03-15T20:40:59.198Z,17.20
2023-03-15T20:43:31.498Z,17.30
2023-03-15T20:46:05.728Z,17.30
2023-03-15T20:48:56.507Z,17.30
2023-03-15T20:51:27.550Z,17.30
2023-03-15T20:53:58.590Z,17.30
2023-03-15T20:56:29.601Z,17.30
2023-03-15T20:59:00.738Z,17.30
2023-03-15T21:01:32.087Z,17.30
2023-03-15T21:04:23.845Z,17.30
2023-03-15T21:06:55.237Z,17.20
2023-03-15T21:09:26.545Z,17.30
2023-03-15T21:11:58.678Z,17.30
2023-03-15T21:14:30.033Z,17.30
2023-03-15T21:17:03.346Z,17.30
2023-03-15T21:19:34.332Z,17.30
2023-03-15T21:22:05.335Z,17.30
2023-03-15T21:24:52.842Z,17.30
2023-03-15T21:27:27.671Z,17.30
2023-03-15T21:29:58.926Z,17.30
2023-03-15T21:32:29.856Z,17.20
2023-03-15T21:35:00.910Z,17.20
2023-03-15T21:37:31.999Z,17.10
2023-03-15T21:40:02.869Z,17.20
2023-03-15T21:42:35.936Z,17.20
2023-03-15T21:45:09.281Z,17.20
2023-03-15T21:47:40.493Z,17.30
2023-03-15T21:50:13.655Z,17.20
2023-03-15T21:52:46.278Z,17.10
2023-03-15T21:55:17.614Z,17.10
2023-03-15T21:57:48.775Z,17.20
2023-03-15T22:00:24.559Z,17.10
2023-03-15T22:02:56.046Z,17.10
2023-03-15T22:05:27.156Z,17.20
2023-03-15T22:07:58.022Z,17.10
2023-03-15T22:10:29.091Z,17.00
2023-03-15T22:13:00.017Z,17.10
2023-03-15T22:15:30.967Z,17.10
2023-03-15T22:18:03.768Z,17.10
2023-03-15T22:20:34.662Z,17.00
2023-03-15T22:23:05.827Z,17.00
2023-03-15T22:25:38.160Z,16.90
2023-03-15T22:28:09.370Z,17.00
2023-03-15T22:30:40.599Z,17.00
2023-03-15T22:33:11.364Z,17.00
2023-03-15T22:35:42.388Z,17.00
2023-03-15T22:38:13.863Z,16.90
2023-03-15T22:40:45.099Z,16.90
2023-03-15T22:43:19.226Z,16.90
2023-03-15T22:45:51.299Z,17.00
2023-03-15T22:48:22.584Z,16.90
2023-03-15T22:51:04.524Z,17.00
2023-03-15T22:53:36.107Z,17.00
2023-03-15T22:56:07.473Z,16.90
2023-03-15T22:58:39.580Z,16.90
2023-03-15T23:01:11.699Z,16.80
2023-03-15T23:03:42.669Z,16.80
2023-03-15T23:06:13.479Z,16.80
2023-03-15T23:08:44.271Z,16.80
2023-03-15T23:11:14.899Z,16.80
2023-03-15T23:13:49.616Z,16.90
2023-03-15T23:16:20.810Z,16.90
2023-03-15T23:18:51.788Z,16.90
2023-03-15T23:22:23.121Z,16.90
2023-03-15T23:25:14.632Z,16.80
2023-03-15T23:27:45.942Z,16.90
2023-03-15T23:30:18.054Z,16.90
2023-03-15T23:32:54.021Z,16.90
2023-03-15T23:35:25.550Z,16.90
2023-03-15T23:37:57.924Z,16.90
2023-03-15T23:40:29.339Z,17.10
2023-03-15T23:43:00.579Z,17.10
2023-03-15T23:45:31.744Z,17.10
2023-03-15T23:48:04.062Z,17.10
2023-03-15T23:50:35.011Z,17.10
2023-03-15T23:53:06.676Z,17.20
2023-03-15T23:55:38.130Z,17.20
2023-03-15T23:58:10.232Z,17.30
